sensor_id;sensor_type;location;lat;lon;timestamp;temperature;humidity
336;DHT22;156;48.738;9.228;2023-06-24T00:00:50;17.20;1.00
336;DHT22;156;48.738;9.228;2023-06-24T00:03:17;17.00;1.00
336;DHT22;156;48.738;9.228;2023-06-24T00:05:44;16.50;1.00
336;DHT22;156;48.738;9.228;2023-06-24T00:08:15;16.80;1.00
336;DHT22;156;48.738;9.228;2023-06-24T00:10:44;16.70;1.00
336;DHT22;156;48.738;9.228;2023-06-24T00:13:13;16.60;1.00
336;DHT22;156;48.738;9.228;2023-06-24T00:15:40;16.70;1.00
336;DHT22;156;48.738;9.228;2023-06-24T00:18:08;16.70;1.00
336;DHT22;156;48.738;9.228;2023-06-24T00:20:35;16.70;1.00
336;DHT22;156;48.738;9.228;2023-06-24T00:23:02;16.60;1.00
336;DHT22;156;48.738;9.228;2023-06-24T00:25:29;16.50;1.00
336;DHT22;156;48.738;9.228;2023-06-24T00:27:56;16.50;1.00
336;DHT22;156;48.738;9.228;2023-06-24T00:30:26;16.50;1.00
336;DHT22;156;48.738;9.228;2023-06-24T00:32:53;16.60;1.00
336;DHT22;156;48.738;9.228;2023-06-24T00:35:20;16.70;1.00
336;DHT22;156;48.738;9.228;2023-06-24T00:37:49;16.80;1.00
336;DHT22;156;48.738;9.228;2023-06-24T00:40:18;16.80;1.00
336;DHT22;156;48.738;9.228;2023-06-24T00:42:45;16.70;1.00
336;DHT22;156;48.738;9.228;2023-06-24T00:45:13;16.70;1.00
336;DHT22;156;48.738;9.228;2023-06-24T00:47:43;16.70;1.00
336;DHT22;156;48.738;9.228;2023-06-24T00:50:11;16.70;1.00
336;DHT22;156;48.738;9.228;2023-06-24T00:52:38;16.70;1.00
336;DHT22;156;48.738;9.228;2023-06-24T00:55:08;16.70;1.00
336;DHT22;156;48.738;9.228;2023-06-24T00:57:37;16.70;1.00
336;DHT22;156;48.738;9.228;2023-06-24T01:00:05;16.60;1.00
336;DHT22;156;48.738;9.228;2023-06-24T01:02:43;16.50;1.00
336;DHT22;156;48.738;9.228;2023-06-24T01:05:11;16.50;1.00
336;DHT22;156;48.738;9.228;2023-06-24T01:07:41;16.50;1.00
336;DHT22;156;48.738;9.228;2023-06-24T01:10:10;16.60;1.00
336;DHT22;156;48.738;9.228;2023-06-24T01:12:41;16.50;1.00
336;DHT22;156;48.738;9.228;2023-06-24T01:15:10;16.40;1.00
336;DHT22;156;48.738;9.228;2023-06-24T01:17:43;16.30;1.00
336;DHT22;156;48.738;9.228;2023-06-24T01:20:21;16.30;1.00
336;DHT22;156;48.738;9.228;2023-06-24T01:23:13;16.40;1.00
336;DHT22;156;48.738;9.228;2023-06-24T01:26:00;16.30;1.00
336;DHT22;156;48.738;9.228;2023-06-24T01:29:00;16.30;1.00
336;DHT22;156;48.738;9.228;2023-06-24T01:31:39;16.30;1.00
336;DHT22;156;48.738;9.228;2023-06-24T01:34:13;16.30;1.00
336;DHT22;156;48.738;9.228;2023-06-24T01:36:55;16.30;1.00
336;DHT22;156;48.738;9.228;2023-06-24T01:39:26;16.30;1.00
336;DHT22;156;48.738;9.228;2023-06-24T01:42:00;16.30;1.00
336;DHT22;156;48.738;9.228;2023-06-24T01:44:30;16.20;1.00
336;DHT22;156;48.738;9.228;2023-06-24T01:46:59;16.20;1.00
336;DHT22;156;48.738;9.228;2023-06-24T01:49:33;16.10;1.00
336;DHT22;156;48.738;9.228;2023-06-24T01:52:04;16.10;1.00
336;DHT22;156;48.738;9.228;2023-06-24T01:54:32;16.00;1.00
336;DHT22;156;48.738;9.228;2023-06-24T01:57:02;16.00;4.60
336;DHT22;156;48.738;9.228;2023-06-24T01:59:30;16.00;8.20
336;DHT22;156;48.738;9.228;2023-06-24T02:02:02;16.00;11.40
336;DHT22;156;48.738;9.228;2023-06-24T02:04:31;15.90;14.80
336;DHT22;156;48.738;9.228;2023-06-24T02:07:03;15.80;22.70
336;DHT22;156;48.738;9.228;2023-06-24T02:09:31;15.90;30.90
336;DHT22;156;48.738;9.228;2023-06-24T02:12:02;15.80;32.50
336;DHT22;156;48.738;9.228;2023-06-24T02:14:30;15.80;37.50
336;DHT22;156;48.738;9.228;2023-06-24T02:16:59;15.80;41.70
336;DHT22;156;48.738;9.228;2023-06-24T02:19:30;15.80;45.90
336;DHT22;156;48.738;9.228;2023-06-24T02:21:58;15.80;50.90
336;DHT22;156;48.738;9.228;2023-06-24T02:24:27;15.80;54.20
336;DHT22;156;48.738;9.228;2023-06-24T02:26:55;15.80;56.00
336;DHT22;156;48.738;9.228;2023-06-24T02:29:26;15.80;57.40
336;DHT22;156;48.738;9.228;2023-06-24T02:31:53;15.80;56.70
336;DHT22;156;48.738;9.228;2023-06-24T02:34:20;15.80;56.40
336;DHT22;156;48.738;9.228;2023-06-24T02:36:48;15.70;60.90
336;DHT22;156;48.738;9.228;2023-06-24T02:39:18;15.70;65.90
336;DHT22;156;48.738;9.228;2023-06-24T02:41:47;15.60;76.10
336;DHT22;156;48.738;9.228;2023-06-24T02:44:15;15.60;82.90
336;DHT22;156;48.738;9.228;2023-06-24T02:46:42;15.60;85.70
336;DHT22;156;48.738;9.228;2023-06-24T02:49:13;15.50;90.50
336;DHT22;156;48.738;9.228;2023-06-24T02:51:41;15.50;91.70
336;DHT22;156;48.738;9.228;2023-06-24T02:54:12;15.40;92.40
336;DHT22;156;48.738;9.228;2023-06-24T02:56:40;15.40;92.80
336;DHT22;156;48.738;9.228;2023-06-24T02:59:12;15.40;92.10
336;DHT22;156;48.738;9.228;2023-06-24T03:01:39;15.50;92.80
336;DHT22;156;48.738;9.228;2023-06-24T03:04:10;15.50;93.80
336;DHT22;156;48.738;9.228;2023-06-24T03:06:38;15.40;94.60
336;DHT22;156;48.738;9.228;2023-06-24T03:09:06;15.40;95.00
336;DHT22;156;48.738;9.228;2023-06-24T03:11:42;15.40;95.00
336;DHT22;156;48.738;9.228;2023-06-24T03:14:09;15.50;95.00
336;DHT22;156;48.738;9.228;2023-06-24T03:16:37;15.50;95.90
336;DHT22;156;48.738;9.228;2023-06-24T03:19:05;15.50;95.00
336;DHT22;156;48.738;9.228;2023-06-24T03:21:35;15.50;95.00
336;DHT22;156;48.738;9.228;2023-06-24T03:24:03;15.30;94.60
336;DHT22;156;48.738;9.228;2023-06-24T03:26:33;15.40;95.70
336;DHT22;156;48.738;9.228;2023-06-24T03:29:02;15.40;98.20
336;DHT22;156;48.738;9.228;2023-06-24T03:31:31;15.30;99.40
336;DHT22;156;48.738;9.228;2023-06-24T03:34:00;15.20;99.90
336;DHT22;156;48.738;9.228;2023-06-24T03:36:27;15.20;99.90
336;DHT22;156;48.738;9.228;2023-06-24T03:38:54;15.10;99.90
336;DHT22;156;48.738;9.228;2023-06-24T03:41:23;15.00;99.90
336;DHT22;156;48.738;9.228;2023-06-24T03:43:51;15.10;99.90
336;DHT22;156;48.738;9.228;2023-06-24T03:46:20;15.10;99.90
336;DHT22;156;48.738;9.228;2023-06-24T03:48:49;15.20;99.20
336;DHT22;156;48.738;9.228;2023-06-24T03:51:19;15.30;98.00
336;DHT22;156;48.738;9.228;2023-06-24T03:53:46;15.30;98.70
336;DHT22;156;48.738;9.228;2023-06-24T03:56:13;15.20;98.20
336;DHT22;156;48.738;9.228;2023-06-24T03:58:40;15.30;97.00
336;DHT22;156;48.738;9.228;2023-06-24T04:01:07;15.30;95.20
336;DHT22;156;48.738;9.228;2023-06-24T04:03:37;15.40;92.80
336;DHT22;156;48.738;9.228;2023-06-24T04:06:06;15.40;91.20
336;DHT22;156;48.738;9.228;2023-06-24T04:08:33;15.50;87.30
336;DHT22;156;48.738;9.228;2023-06-24T04:11:05;15.50;87.30
336;DHT22;156;48.738;9.228;2023-06-24T04:13:36;15.50;90.20
336;DHT22;156;48.738;9.228;2023-06-24T04:16:03;15.40;89.90
336;DHT22;156;48.738;9.228;2023-06-24T04:18:33;15.40;90.30
336;DHT22;156;48.738;9.228;2023-06-24T04:21:04;15.40;89.40
336;DHT22;156;48.738;9.228;2023-06-24T04:23:32;15.50;88.00
336;DHT22;156;48.738;9.228;2023-06-24T04:26:02;15.40;88.70
336;DHT22;156;48.738;9.228;2023-06-24T04:28:29;15.50;84.60
336;DHT22;156;48.738;9.228;2023-06-24T04:30:56;15.60;81.10
336;DHT22;156;48.738;9.228;2023-06-24T04:33:24;15.70;78.30
336;DHT22;156;48.738;9.228;2023-06-24T04:35:51;15.70;75.00
336;DHT22;156;48.738;9.228;2023-06-24T04:38:19;15.80;71.20
336;DHT22;156;48.738;9.228;2023-06-24T04:40:46;15.90;72.20
336;DHT22;156;48.738;9.228;2023-06-24T04:43:13;15.90;68.80
336;DHT22;156;48.738;9.228;2023-06-24T04:45:40;16.00;66.40
336;DHT22;156;48.738;9.228;2023-06-24T04:48:07;16.00;64.40
336;DHT22;156;48.738;9.228;2023-06-24T04:50:34;16.10;61.30
336;DHT22;156;48.738;9.228;2023-06-24T04:53:01;16.10;60.50
336;DHT22;156;48.738;9.228;2023-06-24T04:55:30;16.10;61.80
336;DHT22;156;48.738;9.228;2023-06-24T04:57:57;16.20;64.70
336;DHT22;156;48.738;9.228;2023-06-24T05:00:26;16.20;61.90
336;DHT22;156;48.738;9.228;2023-06-24T05:02:53;16.30;65.30
336;DHT22;156;48.738;9.228;2023-06-24T05:05:20;16.40;56.80
336;DHT22;156;48.738;9.228;2023-06-24T05:07:49;16.40;53.40
336;DHT22;156;48.738;9.228;2023-06-24T05:10:16;16.40;51.20
336;DHT22;156;48.738;9.228;2023-06-24T05:12:44;16.50;46.90
336;DHT22;156;48.738;9.228;2023-06-24T05:15:11;16.50;47.30
336;DHT22;156;48.738;9.228;2023-06-24T05:17:39;16.50;46.00
336;DHT22;156;48.738;9.228;2023-06-24T05:20:07;16.50;46.10
336;DHT22;156;48.738;9.228;2023-06-24T05:22:37;16.50;50.40
336;DHT22;156;48.738;9.228;2023-06-24T05:25:05;16.50;54.10
336;DHT22;156;48.738;9.228;2023-06-24T05:27:36;16.60;52.90
336;DHT22;156;48.738;9.228;2023-06-24T05:30:05;16.70;52.40
336;DHT22;156;48.738;9.228;2023-06-24T05:32:34;16.70;50.90
336;DHT22;156;48.738;9.228;2023-06-24T05:35:01;16.80;46.80
336;DHT22;156;48.738;9.228;2023-06-24T05:37:28;16.90;44.00
336;DHT22;156;48.738;9.228;2023-06-24T05:39:55;16.90;42.30
336;DHT22;156;48.738;9.228;2023-06-24T05:42:22;17.00;39.80
336;DHT22;156;48.738;9.228;2023-06-24T05:44:51;17.00;40.10
336;DHT22;156;48.738;9.228;2023-06-24T05:47:19;17.10;42.10
336;DHT22;156;48.738;9.228;2023-06-24T05:49:46;17.20;37.50
336;DHT22;156;48.738;9.228;2023-06-24T05:52:13;17.30;30.50
336;DHT22;156;48.738;9.228;2023-06-24T05:54:40;17.40;28.20
336;DHT22;156;48.738;9.228;2023-06-24T05:57:07;17.40;19.50
336;DHT22;156;48.738;9.228;2023-06-24T05:59:34;17.40;15.60
336;DHT22;156;48.738;9.228;2023-06-24T06:02:03;17.40;16.00
336;DHT22;156;48.738;9.228;2023-06-24T06:04:31;17.60;19.50
336;DHT22;156;48.738;9.228;2023-06-24T06:06:58;17.60;16.50
336;DHT22;156;48.738;9.228;2023-06-24T06:09:25;17.70;9.70
336;DHT22;156;48.738;9.228;2023-06-24T06:11:52;17.80;7.90
336;DHT22;156;48.738;9.228;2023-06-24T06:14:19;17.90;2.10
336;DHT22;156;48.738;9.228;2023-06-24T06:16:46;17.90;2.70
336;DHT22;156;48.738;9.228;2023-06-24T06:19:13;18.00;1.60
336;DHT22;156;48.738;9.228;2023-06-24T06:21:41;18.00;1.00
336;DHT22;156;48.738;9.228;2023-06-24T06:24:08;18.10;1.00
336;DHT22;156;48.738;9.228;2023-06-24T06:26:41;18.10;1.00
336;DHT22;156;48.738;9.228;2023-06-24T06:29:11;18.10;1.00
336;DHT22;156;48.738;9.228;2023-06-24T06:31:38;18.10;1.00
336;DHT22;156;48.738;9.228;2023-06-24T06:34:05;18.20;1.00
336;DHT22;156;48.738;9.228;2023-06-24T06:36:32;18.30;1.00
336;DHT22;156;48.738;9.228;2023-06-24T06:39:00;17.70;1.00
336;DHT22;156;48.738;9.228;2023-06-24T06:41:27;18.40;1.00
336;DHT22;156;48.738;9.228;2023-06-24T06:43:54;18.50;1.00
336;DHT22;156;48.738;9.228;2023-06-24T06:46:21;18.60;1.00
336;DHT22;156;48.738;9.228;2023-06-24T06:48:48;18.60;1.00
336;DHT22;156;48.738;9.228;2023-06-24T06:51:16;18.70;1.00
336;DHT22;156;48.738;9.228;2023-06-24T06:53:44;18.80;1.00
336;DHT22;156;48.738;9.228;2023-06-24T06:56:18;18.90;1.00
336;DHT22;156;48.738;9.228;2023-06-24T06:58:45;19.10;1.00
336;DHT22;156;48.738;9.228;2023-06-24T07:01:12;19.10;1.00
336;DHT22;156;48.738;9.228;2023-06-24T07:03:39;19.20;1.00
336;DHT22;156;48.738;9.228;2023-06-24T07:06:06;19.20;1.00
336;DHT22;156;48.738;9.228;2023-06-24T07:08:33;19.20;1.00
336;DHT22;156;48.738;9.228;2023-06-24T07:11:00;19.40;1.00
336;DHT22;156;48.738;9.228;2023-06-24T07:13:29;19.50;1.00
336;DHT22;156;48.738;9.228;2023-06-24T07:15:56;19.60;1.00
336;DHT22;156;48.738;9.228;2023-06-24T07:18:23;18.60;1.00
336;DHT22;156;48.738;9.228;2023-06-24T07:20:52;19.80;1.00
336;DHT22;156;48.738;9.228;2023-06-24T07:23:19;19.80;1.00
336;DHT22;156;48.738;9.228;2023-06-24T07:25:46;19.80;1.00
336;DHT22;156;48.738;9.228;2023-06-24T07:28:13;19.90;1.00
336;DHT22;156;48.738;9.228;2023-06-24T07:30:41;19.90;1.00
336;DHT22;156;48.738;9.228;2023-06-24T07:33:10;20.00;1.00
336;DHT22;156;48.738;9.228;2023-06-24T07:35:37;20.10;1.00
336;DHT22;156;48.738;9.228;2023-06-24T07:38:04;20.20;1.00
336;DHT22;156;48.738;9.228;2023-06-24T07:40:30;20.30;1.00
336;DHT22;156;48.738;9.228;2023-06-24T07:42:57;20.40;1.00
336;DHT22;156;48.738;9.228;2023-06-24T07:45:24;20.40;1.00
336;DHT22;156;48.738;9.228;2023-06-24T07:47:53;20.40;1.00
336;DHT22;156;48.738;9.228;2023-06-24T07:50:23;20.40;1.00
336;DHT22;156;48.738;9.228;2023-06-24T07:52:51;20.50;1.00
336;DHT22;156;48.738;9.228;2023-06-24T07:55:23;20.70;1.00
336;DHT22;156;48.738;9.228;2023-06-24T07:57:50;20.80;1.00
336;DHT22;156;48.738;9.228;2023-06-24T08:00:18;20.90;1.00
336;DHT22;156;48.738;9.228;2023-06-24T08:02:45;20.90;1.00
336;DHT22;156;48.738;9.228;2023-06-24T08:05:13;21.00;1.00
336;DHT22;156;48.738;9.228;2023-06-24T08:07:40;21.10;1.00
336;DHT22;156;48.738;9.228;2023-06-24T08:10:07;21.20;1.00
336;DHT22;156;48.738;9.228;2023-06-24T08:12:34;21.20;1.00
336;DHT22;156;48.738;9.228;2023-06-24T08:15:01;21.40;1.00
336;DHT22;156;48.738;9.228;2023-06-24T08:17:28;21.60;1.00
336;DHT22;156;48.738;9.228;2023-06-24T08:19:55;21.60;1.00
336;DHT22;156;48.738;9.228;2023-06-24T08:22:23;21.80;1.00
336;DHT22;156;48.738;9.228;2023-06-24T08:24:50;21.90;1.00
336;DHT22;156;48.738;9.228;2023-06-24T08:27:17;22.00;1.00
336;DHT22;156;48.738;9.228;2023-06-24T08:30:06;22.00;1.00
336;DHT22;156;48.738;9.228;2023-06-24T08:39:20;21.90;1.00
336;DHT22;156;48.738;9.228;2023-06-24T08:41:47;21.90;1.00
336;DHT22;156;48.738;9.228;2023-06-24T08:44:15;22.00;1.00
336;DHT22;156;48.738;9.228;2023-06-24T08:46:42;21.80;1.00
336;DHT22;156;48.738;9.228;2023-06-24T08:49:14;21.80;1.00
336;DHT22;156;48.738;9.228;2023-06-24T08:51:44;21.90;1.00
336;DHT22;156;48.738;9.228;2023-06-24T08:54:14;22.10;1.00
336;DHT22;156;48.738;9.228;2023-06-24T08:56:43;22.30;1.00
336;DHT22;156;48.738;9.228;2023-06-24T08:59:10;22.40;1.00
336;DHT22;156;48.738;9.228;2023-06-24T09:01:37;22.50;1.00
336;DHT22;156;48.738;9.228;2023-06-24T09:04:04;22.50;1.00
336;DHT22;156;48.738;9.228;2023-06-24T09:06:31;22.60;1.00
336;DHT22;156;48.738;9.228;2023-06-24T09:08:58;22.80;1.00
336;DHT22;156;48.738;9.228;2023-06-24T09:11:26;22.80;1.00
336;DHT22;156;48.738;9.228;2023-06-24T09:13:59;22.90;1.00
336;DHT22;156;48.738;9.228;2023-06-24T09:16:26;22.80;1.00
336;DHT22;156;48.738;9.228;2023-06-24T09:18:55;22.90;1.00
336;DHT22;156;48.738;9.228;2023-06-24T09:21:23;23.00;1.00
336;DHT22;156;48.738;9.228;2023-06-24T09:23:52;23.10;1.00
336;DHT22;156;48.738;9.228;2023-06-24T09:26:20;23.10;1.00
336;DHT22;156;48.738;9.228;2023-06-24T09:28:49;23.20;1.00
336;DHT22;156;48.738;9.228;2023-06-24T09:31:18;23.20;1.00
336;DHT22;156;48.738;9.228;2023-06-24T09:33:46;23.10;1.00
336;DHT22;156;48.738;9.228;2023-06-24T09:36:13;23.20;1.00
336;DHT22;156;48.738;9.228;2023-06-24T09:38:41;23.30;1.00
336;DHT22;156;48.738;9.228;2023-06-24T09:41:10;23.30;1.00
336;DHT22;156;48.738;9.228;2023-06-24T09:43:38;23.20;1.00
336;DHT22;156;48.738;9.228;2023-06-24T09:46:07;23.30;1.00
336;DHT22;156;48.738;9.228;2023-06-24T09:48:36;23.30;1.00
336;DHT22;156;48.738;9.228;2023-06-24T09:51:05;23.30;1.00
336;DHT22;156;48.738;9.228;2023-06-24T09:53:33;23.50;1.00
336;DHT22;156;48.738;9.228;2023-06-24T09:56:01;23.50;1.00
336;DHT22;156;48.738;9.228;2023-06-24T09:58:32;23.70;1.00
336;DHT22;156;48.738;9.228;2023-06-24T10:01:02;23.90;1.00
336;DHT22;156;48.738;9.228;2023-06-24T10:03:30;23.90;1.00
336;DHT22;156;48.738;9.228;2023-06-24T10:06:00;24.00;1.00
336;DHT22;156;48.738;9.228;2023-06-24T10:08:28;23.70;1.00
336;DHT22;156;48.738;9.228;2023-06-24T10:10:55;23.70;1.00
336;DHT22;156;48.738;9.228;2023-06-24T10:13:22;23.20;1.00
336;DHT22;156;48.738;9.228;2023-06-24T10:15:50;23.20;1.00
336;DHT22;156;48.738;9.228;2023-06-24T10:18:33;23.30;1.00
336;DHT22;156;48.738;9.228;2023-06-24T10:21:02;23.40;1.00
336;DHT22;156;48.738;9.228;2023-06-24T10:23:33;23.10;1.00
336;DHT22;156;48.738;9.228;2023-06-24T10:26:07;23.10;1.00
336;DHT22;156;48.738;9.228;2023-06-24T10:29:08;23.00;1.00
336;DHT22;156;48.738;9.228;2023-06-24T10:31:56;23.20;1.00
336;DHT22;156;48.738;9.228;2023-06-24T10:34:38;23.30;1.00
336;DHT22;156;48.738;9.228;2023-06-24T10:37:09;23.40;1.00
336;DHT22;156;48.738;9.228;2023-06-24T10:39:40;23.50;1.00
336;DHT22;156;48.738;9.228;2023-06-24T10:42:27;23.70;1.00
336;DHT22;156;48.738;9.228;2023-06-24T10:44:55;24.00;1.00
336;DHT22;156;48.738;9.228;2023-06-24T10:47:22;24.30;1.00
336;DHT22;156;48.738;9.228;2023-06-24T10:49:50;24.50;1.00
336;DHT22;156;48.738;9.228;2023-06-24T10:52:20;24.80;1.00
336;DHT22;156;48.738;9.228;2023-06-24T10:54:48;25.00;1.00
336;DHT22;156;48.738;9.228;2023-06-24T10:57:16;24.60;1.00
336;DHT22;156;48.738;9.228;2023-06-24T10:59:47;24.60;1.00
336;DHT22;156;48.738;9.228;2023-06-24T11:02:15;24.80;1.00
336;DHT22;156;48.738;9.228;2023-06-24T11:04:43;25.00;1.00
336;DHT22;156;48.738;9.228;2023-06-24T11:07:10;25.20;1.00
336;DHT22;156;48.738;9.228;2023-06-24T11:09:40;25.20;1.00
336;DHT22;156;48.738;9.228;2023-06-24T11:12:09;25.40;1.00
336;DHT22;156;48.738;9.228;2023-06-24T11:14:38;25.30;1.00
336;DHT22;156;48.738;9.228;2023-06-24T11:17:06;25.10;1.00
336;DHT22;156;48.738;9.228;2023-06-24T11:19:33;25.20;1.00
336;DHT22;156;48.738;9.228;2023-06-24T11:22:04;25.40;1.00
336;DHT22;156;48.738;9.228;2023-06-24T11:24:32;25.50;1.00
336;DHT22;156;48.738;9.228;2023-06-24T11:27:00;25.60;1.00
336;DHT22;156;48.738;9.228;2023-06-24T11:29:29;25.70;1.00
336;DHT22;156;48.738;9.228;2023-06-24T11:31:56;25.70;1.00
336;DHT22;156;48.738;9.228;2023-06-24T11:34:23;25.60;1.00
336;DHT22;156;48.738;9.228;2023-06-24T11:36:50;25.40;1.00
336;DHT22;156;48.738;9.228;2023-06-24T11:39:21;25.40;1.00
336;DHT22;156;48.738;9.228;2023-06-24T11:41:49;25.30;1.00
336;DHT22;156;48.738;9.228;2023-06-24T11:44:19;25.10;1.00
336;DHT22;156;48.738;9.228;2023-06-24T11:46:47;25.20;1.00
336;DHT22;156;48.738;9.228;2023-06-24T11:49:14;25.10;1.00
336;DHT22;156;48.738;9.228;2023-06-24T11:51:50;25.10;1.00
336;DHT22;156;48.738;9.228;2023-06-24T11:54:21;25.10;1.00
336;DHT22;156;48.738;9.228;2023-06-24T11:56:50;25.30;1.00
336;DHT22;156;48.738;9.228;2023-06-24T11:59:21;25.20;1.00
336;DHT22;156;48.738;9.228;2023-06-24T12:01:53;25.00;1.00
336;DHT22;156;48.738;9.228;2023-06-24T12:04:21;25.20;1.00
336;DHT22;156;48.738;9.228;2023-06-24T12:06:53;25.50;1.00
336;DHT22;156;48.738;9.228;2023-06-24T12:09:20;25.80;1.00
336;DHT22;156;48.738;9.228;2023-06-24T12:11:47;26.00;1.00
336;DHT22;156;48.738;9.228;2023-06-24T12:14:14;26.00;1.00
336;DHT22;156;48.738;9.228;2023-06-24T12:16:42;26.10;1.00
336;DHT22;156;48.738;9.228;2023-06-24T12:19:09;26.20;1.00
336;DHT22;156;48.738;9.228;2023-06-24T12:21:37;26.30;1.00
336;DHT22;156;48.738;9.228;2023-06-24T12:24:05;26.50;1.00
336;DHT22;156;48.738;9.228;2023-06-24T12:26:32;26.50;1.00
336;DHT22;156;48.738;9.228;2023-06-24T12:28:59;26.50;1.00
336;DHT22;156;48.738;9.228;2023-06-24T12:31:25;26.50;1.00
336;DHT22;156;48.738;9.228;2023-06-24T12:33:54;26.70;1.00
336;DHT22;156;48.738;9.228;2023-06-24T12:36:21;26.70;1.00
336;DHT22;156;48.738;9.228;2023-06-24T12:38:48;26.80;1.00
336;DHT22;156;48.738;9.228;2023-06-24T12:41:15;26.80;1.00
336;DHT22;156;48.738;9.228;2023-06-24T12:43:42;27.00;1.00
336;DHT22;156;48.738;9.228;2023-06-24T12:46:09;27.10;1.00
336;DHT22;156;48.738;9.228;2023-06-24T12:48:36;27.10;1.00
336;DHT22;156;48.738;9.228;2023-06-24T12:51:04;27.20;1.00
336;DHT22;156;48.738;9.228;2023-06-24T12:53:31;27.50;1.00
336;DHT22;156;48.738;9.228;2023-06-24T12:55:58;27.80;1.00
336;DHT22;156;48.738;9.228;2023-06-24T12:58:25;27.60;1.00
336;DHT22;156;48.738;9.228;2023-06-24T13:00:52;27.60;1.00
336;DHT22;156;48.738;9.228;2023-06-24T13:03:22;27.40;1.00
336;DHT22;156;48.738;9.228;2023-06-24T13:05:49;27.40;1.00
336;DHT22;156;48.738;9.228;2023-06-24T13:08:17;27.40;1.00
336;DHT22;156;48.738;9.228;2023-06-24T13:10:44;27.60;1.00
336;DHT22;156;48.738;9.228;2023-06-24T13:13:16;27.40;1.00
336;DHT22;156;48.738;9.228;2023-06-24T13:15:43;27.40;1.00
336;DHT22;156;48.738;9.228;2023-06-24T13:18:10;27.40;1.00
336;DHT22;156;48.738;9.228;2023-06-24T13:20:36;27.40;1.00
336;DHT22;156;48.738;9.228;2023-06-24T13:23:03;28.20;1.00
336;DHT22;156;48.738;9.228;2023-06-24T13:25:32;29.10;1.00
336;DHT22;156;48.738;9.228;2023-06-24T13:28:01;29.20;1.00
336;DHT22;156;48.738;9.228;2023-06-24T13:30:28;29.10;1.00
336;DHT22;156;48.738;9.228;2023-06-24T13:32:56;29.30;1.00
336;DHT22;156;48.738;9.228;2023-06-24T13:35:23;29.70;1.00
336;DHT22;156;48.738;9.228;2023-06-24T13:37:56;29.90;1.00
336;DHT22;156;48.738;9.228;2023-06-24T13:40:36;30.30;1.00
336;DHT22;156;48.738;9.228;2023-06-24T13:43:03;30.60;1.00
336;DHT22;156;48.738;9.228;2023-06-24T13:45:40;30.70;1.00
336;DHT22;156;48.738;9.228;2023-06-24T13:48:07;31.10;1.00
336;DHT22;156;48.738;9.228;2023-06-24T13:50:35;31.50;1.00
336;DHT22;156;48.738;9.228;2023-06-24T13:53:02;31.60;1.00
336;DHT22;156;48.738;9.228;2023-06-24T13:55:39;31.40;1.00
336;DHT22;156;48.738;9.228;2023-06-24T13:58:06;31.20;1.00
336;DHT22;156;48.738;9.228;2023-06-24T14:00:33;31.20;1.00
336;DHT22;156;48.738;9.228;2023-06-24T14:03:00;31.50;1.00
336;DHT22;156;48.738;9.228;2023-06-24T14:05:27;32.00;1.00
336;DHT22;156;48.738;9.228;2023-06-24T14:07:54;32.00;1.00
336;DHT22;156;48.738;9.228;2023-06-24T14:10:21;31.90;1.00
336;DHT22;156;48.738;9.228;2023-06-24T14:12:49;31.00;1.00
336;DHT22;156;48.738;9.228;2023-06-24T14:15:16;31.00;1.00
336;DHT22;156;48.738;9.228;2023-06-24T14:17:43;30.00;1.00
336;DHT22;156;48.738;9.228;2023-06-24T14:20:11;29.80;1.00
336;DHT22;156;48.738;9.228;2023-06-24T14:22:41;29.30;1.00
336;DHT22;156;48.738;9.228;2023-06-24T14:25:08;29.00;1.00
336;DHT22;156;48.738;9.228;2023-06-24T14:27:35;29.20;1.00
336;DHT22;156;48.738;9.228;2023-06-24T14:30:04;29.20;1.00
336;DHT22;156;48.738;9.228;2023-06-24T14:32:32;28.90;1.00
336;DHT22;156;48.738;9.228;2023-06-24T14:35:01;28.70;1.00
336;DHT22;156;48.738;9.228;2023-06-24T14:37:28;28.60;1.00
336;DHT22;156;48.738;9.228;2023-06-24T14:39:55;28.60;1.00
336;DHT22;156;48.738;9.228;2023-06-24T14:42:22;29.10;1.00
336;DHT22;156;48.738;9.228;2023-06-24T14:44:49;30.10;1.00
336;DHT22;156;48.738;9.228;2023-06-24T14:47:19;30.80;1.00
336;DHT22;156;48.738;9.228;2023-06-24T14:49:46;30.80;1.00
336;DHT22;156;48.738;9.228;2023-06-24T14:52:13;31.40;1.00
336;DHT22;156;48.738;9.228;2023-06-24T14:54:40;31.80;1.00
336;DHT22;156;48.738;9.228;2023-06-24T14:57:08;31.20;1.00
336;DHT22;156;48.738;9.228;2023-06-24T14:59:35;31.40;1.00
336;DHT22;156;48.738;9.228;2023-06-24T15:02:02;31.00;1.00
336;DHT22;156;48.738;9.228;2023-06-24T15:04:31;30.70;1.00
336;DHT22;156;48.738;9.228;2023-06-24T15:06:58;29.90;1.00
336;DHT22;156;48.738;9.228;2023-06-24T15:09:25;29.20;1.00
336;DHT22;156;48.738;9.228;2023-06-24T15:11:54;29.40;1.00
336;DHT22;156;48.738;9.228;2023-06-24T15:14:21;29.10;1.00
336;DHT22;156;48.738;9.228;2023-06-24T15:16:49;28.70;1.00
336;DHT22;156;48.738;9.228;2023-06-24T15:19:21;29.00;1.00
336;DHT22;156;48.738;9.228;2023-06-24T15:21:50;30.10;1.00
336;DHT22;156;48.738;9.228;2023-06-24T15:24:17;30.90;1.00
336;DHT22;156;48.738;9.228;2023-06-24T15:26:43;30.70;1.00
336;DHT22;156;48.738;9.228;2023-06-24T15:29:10;30.70;1.00
336;DHT22;156;48.738;9.228;2023-06-24T15:31:37;30.60;1.00
336;DHT22;156;48.738;9.228;2023-06-24T15:34:04;30.50;1.00
336;DHT22;156;48.738;9.228;2023-06-24T15:36:31;30.60;1.00
336;DHT22;156;48.738;9.228;2023-06-24T15:39:00;30.20;1.00
336;DHT22;156;48.738;9.228;2023-06-24T15:41:26;29.30;1.00
336;DHT22;156;48.738;9.228;2023-06-24T15:43:53;28.90;1.00
336;DHT22;156;48.738;9.228;2023-06-24T15:46:21;29.30;1.00
336;DHT22;156;48.738;9.228;2023-06-24T15:48:48;29.80;1.00
336;DHT22;156;48.738;9.228;2023-06-24T15:51:15;30.30;1.00
336;DHT22;156;48.738;9.228;2023-06-24T15:53:42;31.00;1.00
336;DHT22;156;48.738;9.228;2023-06-24T15:56:10;31.20;1.00
336;DHT22;156;48.738;9.228;2023-06-24T15:58:37;32.30;1.00
336;DHT22;156;48.738;9.228;2023-06-24T16:01:04;32.20;1.00
336;DHT22;156;48.738;9.228;2023-06-24T16:03:33;32.10;1.00
336;DHT22;156;48.738;9.228;2023-06-24T16:06:00;31.70;1.00
336;DHT22;156;48.738;9.228;2023-06-24T16:08:27;31.60;1.00
336;DHT22;156;48.738;9.228;2023-06-24T16:10:54;31.50;1.00
336;DHT22;156;48.738;9.228;2023-06-24T16:13:22;32.70;1.00
336;DHT22;156;48.738;9.228;2023-06-24T16:15:49;33.30;1.00
336;DHT22;156;48.738;9.228;2023-06-24T16:18:16;33.00;1.00
336;DHT22;156;48.738;9.228;2023-06-24T16:20:43;32.20;1.00
336;DHT22;156;48.738;9.228;2023-06-24T16:23:10;31.50;1.00
336;DHT22;156;48.738;9.228;2023-06-24T16:25:37;30.40;1.00
336;DHT22;156;48.738;9.228;2023-06-24T16:28:04;30.60;1.00
336;DHT22;156;48.738;9.228;2023-06-24T16:30:33;31.20;1.00
336;DHT22;156;48.738;9.228;2023-06-24T16:32:59;31.20;1.00
336;DHT22;156;48.738;9.228;2023-06-24T16:35:26;31.30;1.00
336;DHT22;156;48.738;9.228;2023-06-24T16:37:53;31.40;1.00
336;DHT22;156;48.738;9.228;2023-06-24T16:40:20;31.80;1.00
336;DHT22;156;48.738;9.228;2023-06-24T16:42:47;31.50;1.00
336;DHT22;156;48.738;9.228;2023-06-24T16:45:14;32.20;1.00
336;DHT22;156;48.738;9.228;2023-06-24T16:47:44;32.00;1.00
336;DHT22;156;48.738;9.228;2023-06-24T16:50:12;32.70;1.00
336;DHT22;156;48.738;9.228;2023-06-24T16:52:40;33.80;1.00
336;DHT22;156;48.738;9.228;2023-06-24T16:55:07;34.10;1.00
336;DHT22;156;48.738;9.228;2023-06-24T16:57:34;34.20;1.00
336;DHT22;156;48.738;9.228;2023-06-24T17:00:01;34.50;1.00
336;DHT22;156;48.738;9.228;2023-06-24T17:02:30;34.80;1.00